Milingimbi, Australia
Current Conditions -  °F | °C
As of 10:30 AM on Tuesday 25 Nov 2014 (Local Time) from YPGV Reporting Station
Scattered Clouds Scattered Clouds  
Wind Chill: 88°   Ceiling: Unl
Heat Index: 91°   Visibility: 6mi
Dew Point: 68°   Wind: 10mph
Humidity: 52%   Direction: 70°ENE
Pressure: 29.8"   Gusts: NA
Location:  12.09°S, 134.89°E
Report Text: YPGV 250130Z 07009KT 9999 SCT027 31/20 Q1009
Loading
Personal Weather Stations






























Interactive Weather Map New forecast layout! Learn more

10-Day Weather Forecast

Advertisements
Track Severe Weather on mobile